CheckWX is a tool to help pilots better visualize weather data.  It is not intended as a substitute for an official pre-flight weather briefing.

11:15:29 UTC

KELO METAR
Ely Municipal Airport
Ely, Minnesota, USA
Current

1 hour ago

KELO 250955Z AUTO 00000KT 10SM CLR M15/M17 A3018 RMK AO2
Observed
Feb-25 @ 09:55 UTC
Visibility
10 SM
Flight Rules
VFR
Cloud Levels
  • Clear skies
Temperature
-15°C / 5°F
Dewpoint
-17°C / 1°F
Humidity
85%
Altimeter
30.18" Hg
Pressure
1022.02 hPa
Previous

2 hours ago

KELO 250855Z AUTO 00000KT 10SM CLR M14/M16 A3017 RMK AO2
Observed
Feb-25 @ 08:55 UTC
Visibility
10 SM
Flight Rules
VFR
Cloud Levels
  • Clear skies
Temperature
-14°C / 7°F
Dewpoint
-16°C / 3°F
Humidity
85%
Altimeter
30.17" Hg
Pressure
1021.72 hPa
Previous

3 hours ago

KELO 250755Z AUTO 00000KT 10SM CLR M13/M14 A3016 RMK AO2
Observed
Feb-25 @ 07:55 UTC
Visibility
10 SM
Flight Rules
VFR
Cloud Levels
  • Clear skies
Temperature
-13°C / 9°F
Dewpoint
-14°C / 7°F
Humidity
92%
Altimeter
30.16" Hg
Pressure
1021.32 hPa